createdAt,value
2019-01-16T00:02:32.751Z,0.70
2019-01-16T00:05:18.388Z,0.70
2019-01-16T00:08:21.704Z,0.60
2019-01-16T00:11:15.134Z,0.60
2019-01-16T00:14:05.686Z,0.50
2019-01-16T00:16:59.710Z,0.60
2019-01-16T00:19:42.750Z,0.60
2019-01-16T00:22:21.842Z,0.70
2019-01-16T00:25:08.580Z,0.70
2019-01-16T00:27:55.659Z,0.60
2019-01-16T00:30:40.039Z,0.60
2019-01-16T00:33:15.673Z,0.50
2019-01-16T00:35:56.970Z,0.50
2019-01-16T00:38:51.327Z,0.40
2019-01-16T00:41:57.775Z,0.30
2019-01-16T00:44:50.369Z,0.30
2019-01-16T00:47:28.183Z,0.20
2019-01-16T00:50:20.326Z,0.10
2019-01-16T00:53:13.065Z,0.00
2019-01-16T00:56:10.113Z,-0.10
2019-01-16T00:58:57.180Z,-0.20
2019-01-16T01:01:51.571Z,-0.20
2019-01-16T01:04:29.315Z,-0.30
2019-01-16T01:07:27.002Z,-0.30
2019-01-16T01:10:24.035Z,-0.40
2019-01-16T01:13:06.447Z,-0.40
2019-01-16T01:15:53.239Z,-0.50
2019-01-16T01:18:41.086Z,-0.50
2019-01-16T01:21:28.247Z,-0.40
2019-01-16T01:24:15.152Z,-0.30
2019-01-16T01:27:06.479Z,-0.30
2019-01-16T01:29:52.270Z,-0.40
2019-01-16T01:32:39.326Z,-0.40
2019-01-16T01:35:27.843Z,-0.50
2019-01-16T01:38:25.882Z,-0.60
2019-01-16T01:41:16.934Z,-0.70
2019-01-16T01:43:57.723Z,-0.90
2019-01-16T01:46:44.546Z,-1.00
2019-01-16T01:49:36.023Z,-1.00
2019-01-16T01:52:42.647Z,-1.00
2019-01-16T01:55:30.578Z,-1.10
2019-01-16T01:58:05.104Z,-1.10
2019-01-16T02:00:52.965Z,-1.10
2019-01-16T02:03:43.443Z,-1.20
2019-01-16T02:06:31.719Z,-1.20
2019-01-16T02:09:13.259Z,-1.20
2019-01-16T02:12:00.034Z,-1.20
2019-01-16T02:14:45.140Z,-1.20
2019-01-16T02:17:45.326Z,-1.10
2019-01-16T02:20:34.297Z,-1.10
2019-01-16T02:23:34.657Z,-1.20
2019-01-16T02:26:21.533Z,-1.30
2019-01-16T02:29:27.949Z,-1.30
2019-01-16T02:32:22.254Z,-1.30
2019-01-16T02:35:24.851Z,-1.40
2019-01-16T02:38:03.997Z,-1.50
2019-01-16T02:40:55.258Z,-1.50
2019-01-16T02:43:43.200Z,-1.40
2019-01-16T02:46:30.452Z,-1.40
2019-01-16T02:49:18.767Z,-1.30
2019-01-16T02:52:06.127Z,-1.40
2019-01-16T02:54:52.960Z,-1.40
2019-01-16T02:57:46.998Z,-1.50
2019-01-16T03:00:47.539Z,-1.50
2019-01-16T03:03:22.751Z,-1.60
2019-01-16T03:06:06.607Z,-1.70
2019-01-16T03:08:49.692Z,-1.80
2019-01-16T03:11:37.451Z,-1.90
2019-01-16T03:14:26.091Z,-1.90
2019-01-16T03:17:19.302Z,-2.00
2019-01-16T03:20:18.392Z,-2.00
2019-01-16T03:23:06.168Z,-2.00
2019-01-16T03:26:03.922Z,-2.00
2019-01-16T03:28:53.368Z,-2.00
2019-01-16T03:31:33.141Z,-2.00
2019-01-16T03:34:20.406Z,-1.90
2019-01-16T03:37:23.841Z,-1.90
2019-01-16T03:40:01.807Z,-1.80
2019-01-16T03:42:48.469Z,-1.90
2019-01-16T03:45:35.331Z,-1.90
2019-01-16T03:48:24.082Z,-2.00
2019-01-16T03:51:12.216Z,-2.00
2019-01-16T03:54:04.737Z,-2.10
2019-01-16T03:57:10.984Z,-2.10
2019-01-16T03:59:49.793Z,-2.20
2019-01-16T04:02:50.350Z,-2.20
2019-01-16T04:05:40.973Z,-2.20
2019-01-16T04:08:29.104Z,-2.20
2019-01-16T04:11:20.210Z,-2.10
2019-01-16T04:14:13.526Z,-2.10
2019-01-16T04:17:10.881Z,-2.10
2019-01-16T04:19:51.363Z,-2.00
2019-01-16T04:22:38.789Z,-2.00
2019-01-16T04:25:29.610Z,-2.10
2019-01-16T04:28:21.556Z,-2.00
2019-01-16T04:31:12.700Z,-2.00
2019-01-16T04:33:50.634Z,-2.00
2019-01-16T04:36:37.714Z,-1.90
2019-01-16T04:39:24.900Z,-1.90
2019-01-16T04:42:22.059Z,-1.90
2019-01-16T04:45:25.523Z,-1.90
2019-01-16T04:48:17.667Z,-1.90
2019-01-16T04:51:15.362Z,-2.00
2019-01-16T04:54:08.113Z,-2.00
2019-01-16T04:56:56.053Z,-2.00
2019-01-16T04:59:52.490Z,-2.00
2019-01-16T05:02:38.702Z,-2.00
2019-01-16T05:05:31.444Z,-2.00
2019-01-16T05:08:19.072Z,-2.00
2019-01-16T05:10:59.955Z,-1.90
2019-01-16T05:13:47.398Z,-2.00
2019-01-16T05:16:35.307Z,-2.00
2019-01-16T05:19:22.310Z,-2.00
2019-01-16T05:22:11.597Z,-2.00
2019-01-16T05:25:12.650Z,-2.10
2019-01-16T05:27:59.286Z,-2.00
2019-01-16T05:31:06.383Z,-1.90
2019-01-16T05:33:58.302Z,-2.00
2019-01-16T05:36:53.337Z,-1.90
2019-01-16T05:39:40.132Z,-2.00
2019-01-16T05:42:27.243Z,-2.00
2019-01-16T05:45:14.690Z,-2.10
2019-01-16T05:48:02.064Z,-2.20
2019-01-16T05:50:53.867Z,-2.20
2019-01-16T05:53:34.491Z,-2.30
2019-01-16T05:56:28.602Z,-2.20
2019-01-16T05:59:15.599Z,-2.00
2019-01-16T06:02:03.700Z,-1.80
2019-01-16T06:04:50.580Z,-1.70
2019-01-16T06:07:42.216Z,-1.80
2019-01-16T06:10:31.023Z,-1.90
2019-01-16T06:13:28.235Z,-2.00
2019-01-16T06:16:20.766Z,-2.10
2019-01-16T06:19:14.965Z,-2.10
2019-01-16T06:22:02.255Z,-2.20
2019-01-16T06:24:52.159Z,-2.20
2019-01-16T06:27:42.950Z,-2.30
2019-01-16T06:30:42.937Z,-2.30
2019-01-16T06:33:44.956Z,-2.30
2019-01-16T06:36:23.798Z,-2.40
2019-01-16T06:39:21.807Z,-2.40
2019-01-16T06:42:13.767Z,-2.40
2019-01-16T06:45:01.973Z,-2.40
2019-01-16T06:47:44.000Z,-2.40
2019-01-16T06:50:38.103Z,-2.40
2019-01-16T06:53:32.283Z,-2.40
2019-01-16T06:56:15.346Z,-2.50
2019-01-16T06:59:03.944Z,-2.50
2019-01-16T07:01:58.019Z,-2.50
2019-01-16T07:04:47.141Z,-2.50
2019-01-16T07:07:31.710Z,-2.50
2019-01-16T07:10:25.834Z,-2.50
2019-01-16T07:13:16.680Z,-2.50
2019-01-16T07:16:07.939Z,-2.50
2019-01-16T07:19:11.267Z,-2.50
2019-01-16T07:22:05.375Z,-2.50
2019-01-16T07:24:51.457Z,-2.50
2019-01-16T07:27:37.805Z,-2.50
2019-01-16T07:30:26.647Z,-2.40
2019-01-16T07:33:21.155Z,-2.30
2019-01-16T07:36:06.989Z,-2.20
2019-01-16T07:39:01.243Z,-2.10
2019-01-16T07:41:49.502Z,-2.10
2019-01-16T07:44:53.287Z,-2.00
2019-01-16T07:47:32.030Z,-1.90
2019-01-16T07:50:17.416Z,-1.70
2019-01-16T07:53:01.375Z,-1.60
2019-01-16T07:55:45.233Z,-1.60
2019-01-16T07:58:39.367Z,-1.50
2019-01-16T08:01:46.505Z,-1.40
2019-01-16T08:04:33.234Z,-1.30
2019-01-16T08:07:20.270Z,-1.30
2019-01-16T08:10:07.294Z,-1.30
2019-01-16T08:12:51.266Z,-1.20
2019-01-16T08:15:34.278Z,-1.20
2019-01-16T08:18:10.473Z,-1.00
2019-01-16T08:20:57.326Z,-1.00
2019-01-16T08:24:03.800Z,-0.80
2019-01-16T08:27:04.210Z,-0.70
2019-01-16T08:30:07.432Z,-0.60
2019-01-16T08:33:04.827Z,-0.60
2019-01-16T08:35:41.479Z,-0.50
2019-01-16T08:38:37.798Z,-0.40
2019-01-16T08:41:17.879Z,-0.30
2019-01-16T08:44:13.756Z,-0.20
2019-01-16T08:47:09.425Z,-0.10
2019-01-16T08:50:03.518Z,0.00
2019-01-16T08:52:57.968Z,0.10
2019-01-16T08:55:45.277Z,0.20
2019-01-16T08:58:36.623Z,0.30
2019-01-16T09:01:33.860Z,0.40
2019-01-16T09:04:27.945Z,0.40
2019-01-16T09:07:22.055Z,0.60
2019-01-16T09:10:14.506Z,0.60
2019-01-16T09:13:01.531Z,0.60
2019-01-16T09:15:52.701Z,0.70
2019-01-16T09:18:28.945Z,0.70
2019-01-16T09:21:22.886Z,0.60
2019-01-16T09:24:07.594Z,0.60
2019-01-16T09:26:55.143Z,0.70
2019-01-16T09:29:42.165Z,0.80
2019-01-16T09:32:29.254Z,0.80
2019-01-16T09:35:35.941Z,0.90
2019-01-16T09:38:25.219Z,0.90
2019-01-16T09:41:10.402Z,0.90
2019-01-16T09:44:10.527Z,1.10
2019-01-16T09:46:46.709Z,1.10
2019-01-16T09:49:39.051Z,1.20
2019-01-16T09:52:33.698Z,1.30
2019-01-16T09:55:16.142Z,1.50
2019-01-16T09:58:13.514Z,1.70
2019-01-16T10:01:16.966Z,1.90
2019-01-16T10:04:03.609Z,1.90
2019-01-16T10:06:55.213Z,2.00
2019-01-16T10:09:42.257Z,2.10
2019-01-16T10:12:29.280Z,2.30
2019-01-16T10:15:16.029Z,2.50
2019-01-16T10:18:00.316Z,2.60
2019-01-16T10:20:46.067Z,2.80
2019-01-16T10:23:48.929Z,2.90
2019-01-16T10:26:35.510Z,3.10
2019-01-16T10:29:22.196Z,3.30
2019-01-16T10:32:00.309Z,3.20
2019-01-16T10:34:47.289Z,3.40
2019-01-16T10:37:26.299Z,3.50
2019-01-16T10:40:13.344Z,3.70
2019-01-16T10:43:00.417Z,3.60
2019-01-16T10:45:40.974Z,3.60
2019-01-16T10:48:32.493Z,3.70
2019-01-16T10:51:32.546Z,3.80
2019-01-16T10:54:20.767Z,4.20
2019-01-16T10:57:14.505Z,4.30
2019-01-16T11:00:08.351Z,4.50
2019-01-16T11:02:45.175Z,4.60
2019-01-16T11:05:39.715Z,4.60
2019-01-16T11:08:36.883Z,4.80
2019-01-16T11:11:27.433Z,4.80
2019-01-16T11:14:18.422Z,5.10
2019-01-16T11:17:02.000Z,5.20
2019-01-16T11:19:52.801Z,5.30
2019-01-16T11:22:50.175Z,5.40
2019-01-16T11:25:35.730Z,5.30
2019-01-16T11:28:22.889Z,5.40
2019-01-16T11:31:20.166Z,5.30
2019-01-16T11:34:15.407Z,5.30
2019-01-16T11:37:06.611Z,5.30
2019-01-16T11:39:46.107Z,5.40
2019-01-16T11:42:32.983Z,5.40
2019-01-16T11:45:11.476Z,5.60
2019-01-16T11:47:56.362Z,5.70
2019-01-16T11:50:44.447Z,5.80
2019-01-16T11:53:29.274Z,5.90
2019-01-16T11:56:23.766Z,5.90
2019-01-16T11:59:14.840Z,6.10
2019-01-16T12:02:01.320Z,6.10
2019-01-16T12:04:48.817Z,6.20
2019-01-16T12:07:34.393Z,6.20
2019-01-16T12:10:34.912Z,6.30
2019-01-16T12:13:21.502Z,6.30
2019-01-16T12:16:08.848Z,6.30
2019-01-16T12:18:52.339Z,6.30
2019-01-16T12:21:39.240Z,6.30
2019-01-16T12:24:35.517Z,6.20
2019-01-16T12:27:22.919Z,6.00
2019-01-16T12:30:09.799Z,6.10
2019-01-16T12:32:49.309Z,6.10
2019-01-16T12:35:36.269Z,6.30
2019-01-16T12:38:21.996Z,6.40
2019-01-16T12:41:13.475Z,6.60
2019-01-16T12:44:13.728Z,6.80
2019-01-16T12:47:00.674Z,7.00
2019-01-16T12:49:47.453Z,7.20
2019-01-16T12:52:34.548Z,7.30
2019-01-16T12:55:38.507Z,7.40
2019-01-16T12:58:20.307Z,7.50
2019-01-16T13:01:10.903Z,7.60
2019-01-16T13:03:59.100Z,7.70
2019-01-16T13:06:46.183Z,7.70
2019-01-16T13:09:40.557Z,7.70
2019-01-16T13:12:17.535Z,7.80
2019-01-16T13:15:07.507Z,7.80
2019-01-16T13:17:54.221Z,7.90
2019-01-16T13:20:42.203Z,7.90
2019-01-16T13:23:45.573Z,7.90
2019-01-16T13:26:33.989Z,7.80
2019-01-16T13:29:20.899Z,7.60
2019-01-16T13:32:18.181Z,7.50
2019-01-16T13:35:04.735Z,7.50
2019-01-16T13:37:52.835Z,7.40
2019-01-16T13:40:43.881Z,7.30
2019-01-16T13:43:30.756Z,7.30
2019-01-16T13:46:22.475Z,7.10
2019-01-16T13:49:01.693Z,7.10
2019-01-16T13:51:54.034Z,7.10
2019-01-16T13:54:41.063Z,7.20
2019-01-16T13:57:44.664Z,7.10
2019-01-16T14:00:33.271Z,7.20
2019-01-16T14:03:23.223Z,7.10
2019-01-16T14:06:23.613Z,7.10
2019-01-16T14:09:10.687Z,7.10
2019-01-16T14:11:59.640Z,7.10
2019-01-16T14:14:57.435Z,7.00
2019-01-16T14:17:45.488Z,7.00
2019-01-16T14:20:35.913Z,6.90
2019-01-16T14:23:24.381Z,6.90
2019-01-16T14:26:24.477Z,6.90
2019-01-16T14:29:14.854Z,6.90
2019-01-16T14:32:04.770Z,6.80
2019-01-16T14:34:45.569Z,6.80
2019-01-16T14:37:32.987Z,6.80
2019-01-16T14:40:23.951Z,6.70
2019-01-16T14:43:14.459Z,6.70
2019-01-16T14:46:02.671Z,6.70
2019-01-16T14:48:53.901Z,6.70
2019-01-16T14:51:41.264Z,6.60
2019-01-16T14:54:44.942Z,6.60
2019-01-16T14:57:36.218Z,6.60
2019-01-16T15:00:28.998Z,6.50
2019-01-16T15:03:17.083Z,6.50
2019-01-16T15:06:11.761Z,6.40
2019-01-16T15:09:00.103Z,6.30
2019-01-16T15:11:41.947Z,6.30
2019-01-16T15:14:37.644Z,6.20
2019-01-16T15:17:38.015Z,6.20
2019-01-16T15:20:24.395Z,6.10
2019-01-16T15:23:11.324Z,6.10
2019-01-16T15:25:56.399Z,6.10
2019-01-16T15:28:43.745Z,6.10
2019-01-16T15:31:30.868Z,6.00
2019-01-16T15:34:18.982Z,6.00
2019-01-16T15:37:22.380Z,6.00
2019-01-16T15:40:16.569Z,5.90
2019-01-16T15:43:04.626Z,5.90
2019-01-16T15:45:45.243Z,5.90
2019-01-16T15:48:36.179Z,5.90
2019-01-16T15:51:26.720Z,5.80
2019-01-16T15:54:15.048Z,5.70
2019-01-16T15:57:18.152Z,5.70
2019-01-16T16:00:05.122Z,5.60
2019-01-16T16:02:52.233Z,5.50
2019-01-16T16:05:42.546Z,5.50
2019-01-16T16:08:42.770Z,5.40
2019-01-16T16:11:31.295Z,5.40
2019-01-16T16:14:26.381Z,5.40
2019-01-16T16:17:26.746Z,5.30
2019-01-16T16:20:13.913Z,5.30
2019-01-16T16:22:58.562Z,5.40
2019-01-16T16:25:45.484Z,5.40
2019-01-16T16:28:27.323Z,5.20
2019-01-16T16:31:02.401Z,5.20
2019-01-16T16:33:56.515Z,5.40
2019-01-16T16:36:55.121Z,5.40
2019-01-16T16:39:43.309Z,5.30
2019-01-16T16:42:26.712Z,5.20
2019-01-16T16:45:10.321Z,5.30
2019-01-16T16:48:02.163Z,5.30
2019-01-16T16:51:08.943Z,5.30
2019-01-16T16:53:57.001Z,5.20
2019-01-16T16:56:43.724Z,5.10
2019-01-16T16:59:32.705Z,5.10
2019-01-16T17:02:27.377Z,5.10
2019-01-16T17:05:15.623Z,5.10
2019-01-16T17:08:01.967Z,5.10
2019-01-16T17:11:03.164Z,5.20
2019-01-16T17:13:53.170Z,5.20
2019-01-16T17:16:50.372Z,5.20
2019-01-16T17:19:38.885Z,5.20
2019-01-16T17:22:32.948Z,5.20
2019-01-16T17:25:20.102Z,5.20
2019-01-16T17:28:07.119Z,5.20
2019-01-16T17:30:48.955Z,5.30
2019-01-16T17:33:36.091Z,5.40
2019-01-16T17:36:20.579Z,5.40
2019-01-16T17:39:07.449Z,5.50
2019-01-16T17:42:07.903Z,5.60
2019-01-16T17:45:14.457Z,5.60
2019-01-16T17:48:15.493Z,5.60
2019-01-16T17:51:04.042Z,5.50
2019-01-16T17:53:50.634Z,5.40
2019-01-16T17:56:58.778Z,5.30
2019-01-16T17:59:45.874Z,5.40
2019-01-16T18:02:34.104Z,5.40
2019-01-16T18:05:31.377Z,5.40
2019-01-16T18:08:12.787Z,5.30
2019-01-16T18:11:06.726Z,5.30
2019-01-16T18:13:58.586Z,5.30
2019-01-16T18:16:45.382Z,5.20
2019-01-16T18:19:36.427Z,5.10
2019-01-16T18:22:15.547Z,5.20
2019-01-16T18:25:06.384Z,5.20
2019-01-16T18:27:55.605Z,5.20
2019-01-16T18:30:46.696Z,5.20
2019-01-16T18:33:47.955Z,5.20
2019-01-16T18:36:35.249Z,5.20
2019-01-16T18:39:29.574Z,5.30
2019-01-16T18:42:17.324Z,5.30
2019-01-16T18:45:12.008Z,5.30
2019-01-16T18:47:50.851Z,5.30
2019-01-16T18:50:36.663Z,5.20
2019-01-16T18:53:32.560Z,5.20
2019-01-16T18:56:39.111Z,5.30
2019-01-16T18:59:26.280Z,5.40
2019-01-16T19:02:13.046Z,5.50
2019-01-16T19:05:04.469Z,5.40
2019-01-16T19:08:11.156Z,5.40
2019-01-16T19:11:08.579Z,5.50
2019-01-16T19:13:47.961Z,5.40
2019-01-16T19:16:26.325Z,5.50
2019-01-16T19:19:24.631Z,5.50
2019-01-16T19:22:31.109Z,5.50
2019-01-16T19:25:34.883Z,5.50
2019-01-16T19:28:30.756Z,5.50
2019-01-16T19:31:29.821Z,5.60
2019-01-16T19:34:16.884Z,5.50
2019-01-16T19:37:18.821Z,5.50
2019-01-16T19:40:11.579Z,5.40
2019-01-16T19:42:58.798Z,5.30
2019-01-16T19:45:45.542Z,5.30
2019-01-16T19:48:28.338Z,5.30
2019-01-16T19:51:15.346Z,5.30
2019-01-16T19:53:54.558Z,5.30
2019-01-16T19:56:43.457Z,5.30
2019-01-16T19:59:21.747Z,5.20
2019-01-16T20:02:12.203Z,5.20
2019-01-16T20:05:06.835Z,5.10
2019-01-16T20:07:57.963Z,5.10
2019-01-16T20:10:36.782Z,5.20
2019-01-16T20:13:24.980Z,5.30
2019-01-16T20:16:16.253Z,5.30
2019-01-16T20:18:56.202Z,5.40
2019-01-16T20:21:43.275Z,5.40
2019-01-16T20:24:51.994Z,5.40
2019-01-16T20:27:38.510Z,5.40
2019-01-16T20:30:29.131Z,5.40
2019-01-16T20:33:16.184Z,5.40
2019-01-16T20:36:04.283Z,5.40
2019-01-16T20:39:07.695Z,5.40
2019-01-16T20:41:55.016Z,5.40
2019-01-16T20:44:58.707Z,5.50
2019-01-16T20:47:52.608Z,5.50
2019-01-16T20:50:39.415Z,5.50
2019-01-16T20:53:46.111Z,5.40
2019-01-16T20:56:30.684Z,5.50
2019-01-16T20:59:22.666Z,5.50
2019-01-16T21:02:09.753Z,5.60
2019-01-16T21:05:05.762Z,5.60
2019-01-16T21:07:52.939Z,5.60
2019-01-16T21:10:36.303Z,5.60
2019-01-16T21:13:23.563Z,5.60
2019-01-16T21:16:13.421Z,5.70
2019-01-16T21:19:00.948Z,5.60
2019-01-16T21:21:43.259Z,5.60
2019-01-16T21:24:31.718Z,5.50
2019-01-16T21:27:18.834Z,5.50
2019-01-16T21:30:19.216Z,5.50
2019-01-16T21:33:10.542Z,5.50
2019-01-16T21:35:58.036Z,5.50
2019-01-16T21:38:52.173Z,5.50
2019-01-16T21:41:32.375Z,5.60
2019-01-16T21:44:29.653Z,5.80
2019-01-16T21:47:16.199Z,5.80
2019-01-16T21:50:02.959Z,5.90
2019-01-16T21:52:42.492Z,6.00
2019-01-16T21:55:36.667Z,6.10
2019-01-16T21:58:23.994Z,6.00
2019-01-16T22:01:11.235Z,6.00
2019-01-16T22:03:58.639Z,5.80
2019-01-16T22:06:47.503Z,5.80
2019-01-16T22:09:35.052Z,5.90
2019-01-16T22:12:32.029Z,5.90
2019-01-16T22:15:27.299Z,5.90
2019-01-16T22:18:14.327Z,5.90
2019-01-16T22:21:01.350Z,5.80
2019-01-16T22:24:02.055Z,5.80
2019-01-16T22:27:02.378Z,5.80
2019-01-16T22:29:51.219Z,5.90
2019-01-16T22:32:42.554Z,5.90
2019-01-16T22:35:42.678Z,5.80
2019-01-16T22:38:33.913Z,5.80
2019-01-16T22:41:13.726Z,5.80
2019-01-16T22:44:02.094Z,5.70
2019-01-16T22:46:43.695Z,5.70
2019-01-16T22:49:32.455Z,5.60
2019-01-16T22:52:33.151Z,5.60
2019-01-16T22:55:24.288Z,5.70
2019-01-16T22:58:18.714Z,5.60
2019-01-16T23:01:07.164Z,5.60
2019-01-16T23:03:55.510Z,5.70
2019-01-16T23:06:43.822Z,5.60
2019-01-16T23:09:31.771Z,5.60
2019-01-16T23:12:18.711Z,5.50
2019-01-16T23:15:06.681Z,5.70
2019-01-16T23:17:53.498Z,5.70
2019-01-16T23:20:44.685Z,5.60
2019-01-16T23:23:21.499Z,5.60
2019-01-16T23:26:08.474Z,5.60
2019-01-16T23:28:55.686Z,5.50
2019-01-16T23:31:42.852Z,5.60
2019-01-16T23:34:37.102Z,5.70
2019-01-16T23:37:20.280Z,5.50
2019-01-16T23:40:04.560Z,5.50
2019-01-16T23:42:52.682Z,5.50
2019-01-16T23:45:59.346Z,5.50
2019-01-16T23:48:38.521Z,5.50
2019-01-16T23:51:25.866Z,5.30
2019-01-16T23:54:12.575Z,5.30
2019-01-16T23:57:06.714Z,5.20
2019-01-16T23:59:53.735Z,5.20
